Time;durP1;ratioP1;P1;durP2;ratioP2;P2;SDS_P1;SDS_P2;PMS_P1;PMS_P2;Temp;Humidity;BMP_temperature;BMP_pressure;BME280_temperature;BME280_humidity;BME280_pressure;Samples;Min_cycle;Max_cycle;Signal;HPM_P1;HPM_P2
2023/12/22 10:03:28;;;;;;;3.83;1.30;;;;;;;5.98;84.98;95598.69;6094280;23;20262;-81
2023/12/22 10:08:37;;;;;;;4.57;1.30;;;;;;;6.06;84.54;95593.44;6080774;23;20022;-80
2023/12/22 13:30:08;;;;;;;3.03;1.33;;;;;;;6.77;85.80;95394.13;6091883;23;20139;31
2023/12/22 13:41:58;;;;;;;2.65;1.20;;;;;;;6.75;86.11;95382.34;6160051;23;20077;-80
2023/12/22 13:59:06;;;;;;;5.25;1.40;;;;;;;6.78;86.60;95402.72;6075719;23;20036;-80
2023/12/22 14:01:42;;;;;;;2.45;0.90;;;;;;;6.76;87.11;95396.94;6089539;23;20038;-79
2023/12/22 14:14:36;;;;;;;1.60;1.10;;;;;;;6.80;88.28;95378.22;6105068;23;20275;-80
2023/12/22 14:34:20;;;;;;;0.83;0.57;;;;;;;6.84;89.18;95403.75;6114564;23;20009;-80
2023/12/22 15:11:43;;;;;;;0.40;0.40;;;;;;;7.40;90.77;95437.47;6125766;23;20022;-82
2023/12/22 19:53:18;;;;;;;1.45;0.57;;;;;;;8.10;84.28;95658.19;6108548;23;20029;-80
2023/12/22 19:56:02;;;;;;;0.95;0.40;;;;;;;8.12;83.79;95680.38;6137704;23;20013;-80
2023/12/22 20:04:02;;;;;;;1.03;0.60;;;;;;;8.11;83.65;95664.97;6095667;23;20005;-81
2023/12/22 20:06:38;;;;;;;0.65;0.57;;;;;;;8.12;83.69;95682.19;6095665;23;20035;-81
2023/12/22 20:09:16;;;;;;;0.77;0.52;;;;;;;8.10;83.72;95679.75;6095716;23;20082;-80
2023/12/22 20:14:40;;;;;;;27.83;16.90;;;;;;;8.08;83.90;95676.53;6096735;23;20034;-79
2023/12/22 20:43:14;;;;;;;0.65;0.47;;;;;;;8.04;83.70;95690.91;6090958;23;20034;-80
2023/12/22 20:45:47;;;;;;;0.40;0.40;;;;;;;8.05;83.78;95716.69;6113669;23;20030;-79
2023/12/22 20:48:15;;;;;;;3.55;0.98;;;;;;;8.06;83.35;95699.31;6119094;23;20018;-81
2023/12/22 20:50:43;;;;;;;2.05;0.70;;;;;;;8.08;83.41;95735.50;6118934;23;20519;-83
2023/12/22 20:53:11;;;;;;;1.45;0.50;;;;;;;8.06;83.45;95714.88;6109338;23;20026;-83
2023/12/22 20:55:40;;;;;;;3.22;0.80;;;;;;;8.03;83.28;95717.88;6124824;23;20033;-82
2023/12/22 20:58:07;;;;;;;0.40;0.40;;;;;;;8.03;82.77;95715.28;6081010;23;20070;-82
2023/12/22 21:00:37;;;;;;;2.60;0.90;;;;;;;8.03;83.18;95689.31;6080630;23;20023;-83
2023/12/22 21:03:05;;;;;;;3.75;0.95;;;;;;;8.03;82.84;95712.69;6080023;23;20018;-83
2023/12/22 21:05:33;;;;;;;0.80;0.70;;;;;;;8.02;82.74;95718.84;6081018;23;20026;-83
2023/12/22 21:08:02;;;;;;;0.85;0.55;;;;;;;8.04;82.86;95741.03;6080977;23;20078;-83
2023/12/22 21:10:33;;;;;;;1.35;0.60;;;;;;;8.03;83.04;95723.06;6083290;23;20029;-83
2023/12/22 21:13:01;;;;;;;1.85;0.60;;;;;;;8.02;83.62;95742.22;6082614;23;20029;-83
2023/12/22 21:15:29;;;;;;;1.40;0.73;;;;;;;8.04;82.87;95743.63;6081469;23;20019;-83
2023/12/22 21:17:58;;;;;;;1.35;0.68;;;;;;;8.02;82.21;95763.00;6080340;23;20018;-83
2023/12/22 21:20:26;;;;;;;4.40;0.60;;;;;;;8.02;82.54;95750.84;6080132;23;20026;-83
2023/12/22 21:22:56;;;;;;;17.33;8.93;;;;;;;8.03;82.58;95749.03;6082522;23;20018;-83
2023/12/22 21:25:24;;;;;;;7.03;4.20;;;;;;;8.04;82.32;95758.44;6082772;23;20023;-82
2023/12/22 21:27:52;;;;;;;3.08;1.00;;;;;;;8.05;82.14;95766.03;6083151;23;20019;-83
2023/12/22 21:30:20;;;;;;;2.40;0.95;;;;;;;8.06;82.28;95777.22;6083676;23;20074;-83
2023/12/22 21:32:48;;;;;;;1.88;0.70;;;;;;;8.06;82.47;95766.84;6083051;23;20582;-83
2023/12/22 21:35:18;;;;;;;1.45;0.40;;;;;;;8.06;82.06;95766.84;6085124;23;20023;-83
2023/12/22 21:37:46;;;;;;;2.30;0.60;;;;;;;8.07;81.91;95765.03;6087831;23;20038;-83
2023/12/22 21:40:16;;;;;;;2.75;0.75;;;;;;;8.07;82.34;95765.88;6088027;23;20022;-83
2023/12/22 21:42:46;;;;;;;1.88;1.35;;;;;;;8.04;82.19;95774.00;6086584;23;20033;-83
2023/12/22 21:45:14;;;;;;;1.48;0.70;;;;;;;8.03;81.91;95751.63;6087593;23;20081;-83
2023/12/22 21:47:41;;;;;;;1.95;0.70;;;;;;;8.04;81.86;95767.00;6088857;23;20003;-83
2023/12/22 21:50:10;;;;;;;1.13;0.60;;;;;;;8.03;81.46;95770.63;6086495;23;20027;-83
2023/12/22 21:52:40;;;;;;;3.85;1.00;;;;;;;8.03;81.58;95767.22;6084941;23;20058;-83
2023/12/22 21:55:11;;;;;;;1.90;0.57;;;;;;;8.03;81.53;95772.41;6083447;23;20030;-83
2023/12/22 21:57:41;;;;;;;2.38;0.90;;;;;;;8.02;81.75;95786.38;6081822;23;20015;-83
2023/12/22 22:00:10;;;;;;;1.95;0.85;;;;;;;8.00;81.10;95767.56;6082156;23;20023;-83
2023/12/22 22:02:38;;;;;;;3.33;1.42;;;;;;;8.00;81.29;95788.34;6080101;23;20026;-83
2023/12/22 22:05:06;;;;;;;3.00;1.13;;;;;;;8.01;81.25;95797.78;6080399;23;20026;-83
2023/12/22 22:07:35;;;;;;;5.32;1.75;;;;;;;8.01;81.21;95795.16;6080398;23;20031;-83
2023/12/22 22:10:05;;;;;;;12.57;8.00;;;;;;;8.02;80.16;95801.97;6081104;23;20019;-83
2023/12/22 22:12:33;;;;;;;14.32;9.70;;;;;;;8.03;80.81;95793.19;6081240;23;20023;-83
2023/12/22 22:15:02;;;;;;;5.82;1.67;;;;;;;8.03;80.76;95788.00;6080417;23;20025;-82
2023/12/22 22:17:30;;;;;;;1.67;0.82;;;;;;;8.04;80.61;95785.19;6080696;23;20023;-83
2023/12/22 22:19:58;;;;;;;1.83;0.65;;;;;;;8.03;80.63;95801.78;6079754;23;20492;-83
2023/12/22 22:22:28;;;;;;;2.30;0.70;;;;;;;8.00;80.76;95777.97;6079688;23;20019;-83
2023/12/22 22:24:56;;;;;;;1.42;0.30;;;;;;;8.02;80.76;95786.38;6079478;23;20019;-83
2023/12/22 22:27:25;;;;;;;0.63;0.52;;;;;;;8.01;80.70;95780.38;6078733;23;20034;-83
2023/12/22 22:29:53;;;;;;;1.83;0.52;;;;;;;8.01;80.41;95795.16;6078232;23;20050;-82
2023/12/22 22:32:21;;;;;;;2.65;0.60;;;;;;;8.00;80.54;95798.75;6078291;23;20041;-83
2023/12/22 22:34:49;;;;;;;1.00;0.70;;;;;;;7.99;80.88;95813.53;6079097;23;20090;-83
2023/12/22 22:37:18;;;;;;;1.58;0.40;;;;;;;7.99;80.98;95807.53;6078746;23;20022;-83
2023/12/22 22:39:46;;;;;;;1.20;0.57;;;;;;;7.96;81.23;95800.91;6079494;23;20105;-83
2023/12/22 22:42:14;;;;;;;2.05;0.30;;;;;;;7.95;81.51;95822.66;6078396;23;20027;-83
2023/12/22 22:44:44;;;;;;;2.38;0.70;;;;;;;7.95;81.18;95814.09;6079577;23;20023;-80
2023/12/22 22:47:12;;;;;;;2.72;0.63;;;;;;;7.92;81.92;95784.09;6080727;23;20019;-80
2023/12/22 22:49:40;;;;;;;3.45;0.70;;;;;;;7.95;81.82;95798.50;6080903;23;20023;-80
2023/12/22 22:52:09;;;;;;;5.60;0.80;;;;;;;7.93;81.11;95808.28;6082083;23;20068;-80
2023/12/22 22:54:37;;;;;;;3.38;0.95;;;;;;;7.92;80.92;95809.28;6082261;23;20098;-80
2023/12/22 22:57:05;;;;;;;1.58;0.40;;;;;;;7.92;80.94;95824.84;6080886;23;20019;-80
2023/12/22 22:59:33;;;;;;;2.92;0.80;;;;;;;7.93;80.63;95792.69;6081449;23;20073;-80
2023/12/22 23:02:03;;;;;;;3.38;1.02;;;;;;;7.94;80.35;95807.28;6083548;23;20011;-80
2023/12/22 23:04:30;;;;;;;1.52;0.80;;;;;;;7.94;80.65;95813.28;6087725;23;20023;-80
2023/12/22 23:06:59;;;;;;;4.75;1.10;;;;;;;7.94;80.64;95825.47;6082548;23;20093;-80
2023/12/22 23:09:26;;;;;;;3.50;0.90;;;;;;;7.93;80.43;95813.47;6083019;23;20110;-80
2023/12/22 23:11:54;;;;;;;1.83;0.70;;;;;;;7.93;80.39;95792.69;6083740;23;20019;-80
2023/12/22 23:14:22;;;;;;;2.50;0.80;;;;;;;7.92;80.56;95814.47;6083621;23;20022;-80
2023/12/22 23:16:50;;;;;;;3.38;1.20;;;;;;;7.92;80.34;95841.22;6083315;23;20145;-80
2023/12/22 23:19:19;;;;;;;3.33;1.02;;;;;;;7.92;80.31;95833.44;6081799;23;20019;-83
2023/12/22 23:21:47;;;;;;;2.33;1.40;;;;;;;7.93;80.47;95844.63;6079789;23;20015;-83
2023/12/22 23:24:17;;;;;;;2.03;0.47;;;;;;;7.93;80.04;95834.22;6080482;23;20027;-83
2023/12/22 23:26:45;;;;;;;3.40;0.82;;;;;;;7.91;79.54;95846.59;6081131;23;20023;-83
2023/12/22 23:29:12;;;;;;;3.63;1.15;;;;;;;7.91;79.93;95847.41;6083060;23;20049;-83
2023/12/22 23:31:40;;;;;;;2.28;0.82;;;;;;;7.91;80.35;95847.41;6082819;23;20030;-82
2023/12/22 23:34:09;;;;;;;1.48;0.60;;;;;;;7.89;79.79;95858.97;6081842;23;20044;-83
2023/12/22 23:36:38;;;;;;;4.00;1.00;;;;;;;7.87;79.56;95834.97;6080766;23;20034;-83
2023/12/22 23:39:07;;;;;;;6.00;0.95;;;;;;;7.87;79.69;95822.81;6081503;23;20049;-83
2023/12/22 23:41:34;;;;;;;3.55;1.00;;;;;;;7.87;79.74;95834.97;6082170;23;20074;-83
2023/12/22 23:44:02;;;;;;;3.42;1.00;;;;;;;7.86;79.32;95826.38;6080962;23;20361;-83
2023/12/22 23:46:30;;;;;;;4.07;1.33;;;;;;;7.88;80.62;95839.19;6081190;23;20019;-83
2023/12/22 23:48:58;;;;;;;4.05;1.02;;;;;;;7.88;79.74;95829.59;6081944;23;20037;-83
2023/12/22 23:51:26;;;;;;;2.47;0.80;;;;;;;7.88;79.69;95827.00;6081546;23;20115;-83
2023/12/22 23:53:55;;;;;;;3.15;1.00;;;;;;;7.87;79.28;95843.59;6083373;23;20054;-83
2023/12/22 23:56:23;;;;;;;4.10;1.10;;;;;;;7.85;79.62;95832.56;6082459;23;20023;-83
2023/12/22 23:58:51;;;;;;;2.63;1.20;;;;;;;7.87;79.99;95840.16;6082155;23;20022;-83
